createdAt,value
2023-04-19T00:00:34.885Z,213.63
2023-04-19T00:01:34.903Z,216.10
2023-04-19T00:02:35.028Z,215.99
2023-04-19T00:03:35.210Z,214.57
2023-04-19T00:04:35.056Z,215.09
2023-04-19T00:05:34.970Z,215.16
2023-04-19T00:06:34.990Z,213.64
2023-04-19T00:07:35.006Z,216.00
2023-04-19T00:08:35.057Z,213.19
2023-04-19T00:09:35.053Z,213.71
2023-04-19T00:10:35.055Z,216.25
2023-04-19T00:11:35.073Z,215.93
2023-04-19T00:12:35.105Z,217.28
2023-04-19T00:13:35.107Z,215.16
2023-04-19T00:14:35.116Z,214.88
2023-04-19T00:15:35.181Z,217.01
2023-04-19T00:16:35.188Z,215.55
2023-04-19T00:17:35.241Z,214.91
2023-04-19T00:18:35.186Z,216.43
2023-04-19T00:19:35.220Z,216.67
2023-04-19T00:20:35.221Z,216.59
2023-04-19T00:21:35.218Z,217.58
2023-04-19T00:22:35.253Z,217.96
2023-04-19T00:23:35.251Z,219.29
2023-04-19T00:24:35.278Z,219.66
2023-04-19T00:25:35.288Z,219.70
2023-04-19T00:26:35.291Z,219.44
2023-04-19T00:27:35.319Z,219.40
2023-04-19T00:28:35.336Z,219.87
2023-04-19T00:29:35.335Z,221.21
2023-04-19T00:30:35.383Z,219.39
2023-04-19T00:31:35.361Z,220.02
2023-04-19T00:32:35.410Z,219.80
2023-04-19T00:33:35.391Z,220.17
2023-04-19T00:34:35.407Z,218.47
2023-04-19T00:35:35.417Z,219.33
2023-04-19T00:36:35.441Z,221.78
2023-04-19T00:37:35.449Z,219.79
2023-04-19T00:38:35.464Z,219.39
2023-04-19T00:39:35.490Z,220.84
2023-04-19T00:40:35.487Z,220.48
2023-04-19T00:41:35.500Z,219.47
2023-04-19T00:42:35.517Z,221.31
2023-04-19T00:43:35.549Z,220.90
2023-04-19T00:44:35.571Z,221.32
2023-04-19T00:45:35.563Z,220.79
2023-04-19T00:46:35.612Z,221.33
2023-04-19T00:47:35.636Z,223.64
2023-04-19T00:48:35.626Z,222.91
2023-04-19T00:49:35.642Z,221.19
2023-04-19T00:50:35.656Z,223.00
2023-04-19T00:51:35.671Z,222.24
2023-04-19T00:52:35.690Z,223.04
2023-04-19T00:53:35.694Z,223.36
2023-04-19T00:54:35.733Z,223.72
2023-04-19T00:55:35.742Z,223.12
2023-04-19T00:56:35.745Z,223.57
2023-04-19T00:57:35.760Z,224.24
2023-04-19T00:58:35.787Z,222.92
2023-04-19T00:59:35.810Z,224.39
2023-04-19T01:00:35.826Z,223.67
2023-04-19T01:01:35.866Z,224.04
2023-04-19T01:02:36.024Z,224.95
2023-04-19T01:03:36.136Z,224.35
2023-04-19T01:04:35.971Z,225.09
2023-04-19T01:05:35.906Z,224.83
2023-04-19T01:06:35.918Z,225.76
2023-04-19T01:07:35.925Z,225.44
2023-04-19T01:08:35.950Z,225.57
2023-04-19T01:09:35.948Z,223.75
2023-04-19T01:10:35.959Z,225.36
2023-04-19T01:11:35.976Z,225.40
2023-04-19T01:12:35.997Z,225.76
2023-04-19T01:13:36.003Z,226.25
2023-04-19T01:14:36.001Z,225.63
2023-04-19T01:15:36.070Z,227.14
2023-04-19T01:16:36.042Z,226.29
2023-04-19T01:17:36.084Z,226.42
2023-04-19T01:18:36.071Z,226.08
2023-04-19T01:19:36.062Z,227.05
2023-04-19T01:20:36.083Z,227.49
2023-04-19T01:21:36.096Z,227.58
2023-04-19T01:22:36.100Z,226.02
2023-04-19T01:23:36.126Z,226.67
2023-04-19T01:24:36.142Z,225.38
2023-04-19T01:25:36.124Z,225.78
2023-04-19T01:26:36.183Z,227.22
2023-04-19T01:27:36.184Z,226.11
2023-04-19T01:28:36.181Z,226.17
2023-04-19T01:29:36.186Z,226.83
2023-04-19T01:30:36.197Z,226.45
2023-04-19T01:31:36.225Z,226.28
2023-04-19T01:32:36.212Z,227.40
2023-04-19T01:33:36.212Z,226.56
2023-04-19T01:34:36.244Z,226.01
2023-04-19T01:35:36.232Z,227.94
2023-04-19T01:36:36.264Z,227.32
2023-04-19T01:37:36.274Z,226.55
2023-04-19T01:38:36.274Z,226.80
2023-04-19T01:39:36.289Z,226.86
2023-04-19T01:40:36.311Z,226.42
2023-04-19T01:41:36.323Z,226.67
2023-04-19T01:42:36.314Z,227.48
2023-04-19T01:43:36.341Z,226.86
2023-04-19T01:44:36.354Z,226.54
2023-04-19T01:45:36.372Z,227.34
2023-04-19T01:46:36.403Z,226.70
2023-04-19T01:47:36.438Z,226.91
2023-04-19T01:48:36.403Z,226.08
2023-04-19T01:49:36.411Z,226.11
2023-04-19T01:50:36.430Z,226.88
2023-04-19T01:51:36.426Z,227.02
2023-04-19T01:52:36.435Z,226.57
2023-04-19T01:53:36.468Z,226.08
2023-04-19T01:54:36.460Z,227.17
2023-04-19T01:55:36.487Z,226.63
2023-04-19T01:56:36.498Z,226.85
2023-04-19T01:57:36.517Z,225.56
2023-04-19T01:58:36.513Z,226.20
2023-04-19T01:59:36.554Z,226.74
2023-04-19T02:00:36.598Z,226.46
2023-04-19T02:01:36.567Z,226.56
2023-04-19T02:02:36.850Z,226.81
2023-04-19T02:03:36.747Z,225.68
2023-04-19T02:04:36.621Z,226.49
2023-04-19T02:05:36.634Z,226.42
2023-04-19T02:06:36.635Z,226.94
2023-04-19T02:07:36.659Z,226.31
2023-04-19T02:08:36.655Z,226.15
2023-04-19T02:09:36.673Z,226.07
2023-04-19T02:10:36.714Z,227.02
2023-04-19T02:11:36.725Z,226.19
2023-04-19T02:12:36.716Z,226.17
2023-04-19T02:13:36.734Z,227.38
2023-04-19T02:14:36.773Z,226.84
2023-04-19T02:15:36.774Z,228.09
2023-04-19T02:16:36.838Z,228.31
2023-04-19T02:17:36.856Z,227.93
2023-04-19T02:18:36.829Z,227.38
2023-04-19T02:19:36.823Z,226.26
2023-04-19T02:20:36.846Z,226.02
2023-04-19T02:21:36.859Z,226.88
2023-04-19T02:22:36.881Z,225.75
2023-04-19T02:23:36.906Z,226.60
2023-04-19T02:24:36.905Z,226.71
2023-04-19T02:25:36.945Z,226.12
2023-04-19T02:26:36.940Z,225.65
2023-04-19T02:27:36.997Z,225.62
2023-04-19T02:28:36.986Z,227.27
2023-04-19T02:29:37.019Z,226.29
2023-04-19T02:30:37.041Z,226.88
2023-04-19T02:31:37.086Z,226.83
2023-04-19T02:32:37.123Z,226.21
2023-04-19T02:33:37.081Z,225.41
2023-04-19T02:34:37.086Z,225.83
2023-04-19T02:35:37.100Z,227.09
2023-04-19T02:36:37.135Z,226.44
2023-04-19T02:37:37.149Z,226.47
2023-04-19T02:38:37.172Z,226.89
2023-04-19T02:39:37.186Z,224.81
2023-04-19T02:40:37.193Z,225.07
2023-04-19T02:41:37.220Z,225.78
2023-04-19T02:42:37.224Z,226.18
2023-04-19T02:43:37.250Z,226.26
2023-04-19T02:44:37.252Z,225.57
2023-04-19T02:45:37.367Z,227.29
2023-04-19T02:46:37.388Z,225.82
2023-04-19T02:47:37.326Z,225.81
2023-04-19T02:48:37.358Z,226.60
2023-04-19T02:49:37.351Z,226.56
2023-04-19T02:50:37.362Z,226.36
2023-04-19T02:51:37.372Z,226.51
2023-04-19T02:52:37.390Z,226.69
2023-04-19T02:53:37.392Z,225.92
2023-04-19T02:54:37.428Z,226.39
2023-04-19T02:55:37.436Z,226.49
2023-04-19T02:56:37.447Z,226.25
2023-04-19T02:57:37.457Z,226.58
2023-04-19T02:58:37.479Z,227.24
2023-04-19T02:59:37.479Z,226.96
2023-04-19T03:00:37.512Z,226.71
2023-04-19T03:01:37.648Z,226.41
2023-04-19T03:02:37.627Z,226.48
2023-04-19T03:03:37.619Z,226.60
2023-04-19T03:04:37.603Z,226.41
2023-04-19T03:05:37.565Z,226.12
2023-04-19T03:06:37.595Z,226.80
2023-04-19T03:07:37.617Z,226.50
2023-04-19T03:08:37.640Z,226.94
2023-04-19T03:09:37.652Z,226.73
2023-04-19T03:10:37.652Z,226.64
2023-04-19T03:11:37.655Z,226.32
2023-04-19T03:12:37.690Z,226.63
2023-04-19T03:13:37.682Z,227.13
2023-04-19T03:14:37.717Z,226.32
2023-04-19T03:15:37.744Z,226.96
2023-04-19T03:16:37.720Z,226.64
2023-04-19T03:17:37.877Z,226.53
2023-04-19T03:18:37.748Z,227.25
2023-04-19T03:19:37.780Z,226.40
2023-04-19T03:20:37.771Z,227.87
2023-04-19T03:21:37.782Z,227.01
2023-04-19T03:22:37.838Z,226.29
2023-04-19T03:23:37.869Z,225.89
2023-04-19T03:24:38.315Z,226.91
2023-04-19T03:25:37.850Z,227.12
2023-04-19T03:26:37.852Z,227.25
2023-04-19T03:27:37.888Z,226.12
2023-04-19T03:28:37.911Z,226.74
2023-04-19T03:29:37.921Z,226.54
2023-04-19T03:30:37.956Z,226.47
2023-04-19T03:31:37.994Z,226.34
2023-04-19T03:32:38.038Z,226.84
2023-04-19T03:33:37.986Z,227.59
2023-04-19T03:34:38.038Z,226.58
2023-04-19T03:35:38.024Z,227.15
2023-04-19T03:36:38.042Z,226.60
2023-04-19T03:37:38.056Z,226.57
2023-04-19T03:38:38.092Z,224.94
2023-04-19T03:39:38.094Z,226.41
2023-04-19T03:40:38.103Z,225.90
2023-04-19T03:41:38.138Z,226.45
2023-04-19T03:42:38.141Z,226.60
2023-04-19T03:43:38.168Z,225.05
2023-04-19T03:44:38.184Z,225.60
2023-04-19T03:45:38.184Z,226.35
2023-04-19T03:46:38.272Z,226.52
2023-04-19T03:47:38.268Z,225.95
2023-04-19T03:48:38.242Z,225.92
2023-04-19T03:49:38.264Z,227.32
2023-04-19T03:50:38.290Z,227.00
2023-04-19T03:51:38.287Z,227.16
2023-04-19T03:52:38.319Z,226.78
2023-04-19T03:53:38.355Z,226.66
2023-04-19T03:54:38.361Z,226.88
2023-04-19T03:55:38.388Z,225.80
2023-04-19T03:56:38.380Z,226.17
2023-04-19T03:57:38.406Z,225.70
2023-04-19T03:58:38.761Z,226.12
2023-04-19T03:59:38.454Z,226.85
2023-04-19T04:00:38.511Z,225.74
2023-04-19T04:01:38.525Z,227.28
2023-04-19T04:02:38.668Z,226.55
2023-04-19T04:03:38.696Z,228.60
2023-04-19T04:04:38.776Z,226.90
2023-04-19T04:05:38.606Z,225.96
2023-04-19T04:06:38.600Z,226.37
2023-04-19T04:07:38.567Z,227.30
2023-04-19T04:08:38.596Z,226.88
2023-04-19T04:09:38.611Z,227.08
2023-04-19T04:10:38.621Z,226.89
2023-04-19T04:11:38.641Z,227.25
2023-04-19T04:12:38.672Z,227.24
2023-04-19T04:13:38.677Z,227.20
2023-04-19T04:14:38.701Z,226.72
2023-04-19T04:15:38.714Z,227.00
2023-04-19T04:16:38.752Z,227.14
2023-04-19T04:17:38.792Z,226.56
2023-04-19T04:18:38.755Z,226.22
2023-04-19T04:19:38.760Z,227.49
2023-04-19T04:20:38.787Z,226.75
2023-04-19T04:21:38.824Z,227.02
2023-04-19T04:22:38.822Z,226.74
2023-04-19T04:23:38.848Z,227.37
2023-04-19T04:24:38.858Z,228.77
2023-04-19T04:25:38.862Z,228.36
2023-04-19T04:26:38.878Z,227.96
2023-04-19T04:27:38.908Z,227.68
2023-04-19T04:28:38.933Z,229.04
2023-04-19T04:29:38.939Z,229.58
2023-04-19T04:30:38.973Z,227.89
2023-04-19T04:31:39.041Z,228.81
2023-04-19T04:32:39.038Z,229.99
2023-04-19T04:33:39.016Z,228.75
2023-04-19T04:34:39.050Z,230.14
2023-04-19T04:35:39.050Z,230.07
2023-04-19T04:36:39.066Z,231.31
2023-04-19T04:37:39.114Z,230.97
2023-04-19T04:38:39.101Z,231.06
2023-04-19T04:39:39.133Z,231.26
2023-04-19T04:40:39.151Z,233.21
2023-04-19T04:41:39.170Z,232.08
2023-04-19T04:42:39.188Z,232.00
2023-04-19T04:43:39.183Z,231.67
2023-04-19T04:44:39.253Z,232.37
2023-04-19T04:45:39.265Z,231.19
2023-04-19T04:46:39.263Z,231.56
2023-04-19T04:47:39.319Z,231.52
2023-04-19T04:48:39.283Z,231.36
2023-04-19T04:49:39.314Z,231.00
2023-04-19T04:50:39.322Z,230.25
2023-04-19T04:51:39.359Z,231.08
2023-04-19T04:52:39.372Z,231.14
2023-04-19T04:53:39.371Z,231.04
2023-04-19T04:54:39.400Z,224.73
2023-04-19T04:55:39.421Z,221.94
2023-04-19T04:56:39.488Z,217.97
2023-04-19T04:57:39.458Z,217.05
2023-04-19T04:58:39.468Z,226.35
2023-04-19T04:59:39.506Z,227.67
2023-04-19T05:00:39.501Z,228.60
2023-04-19T05:01:39.544Z,228.14
2023-04-19T05:02:39.608Z,223.23
2023-04-19T05:03:39.607Z,223.22
2023-04-19T05:04:39.606Z,224.61
2023-04-19T05:05:39.613Z,227.33
2023-04-19T05:06:39.617Z,230.65
2023-04-19T05:07:39.635Z,230.06
2023-04-19T05:08:39.653Z,230.58
2023-04-19T05:09:39.681Z,231.54
2023-04-19T05:10:39.697Z,229.26
2023-04-19T05:11:39.715Z,223.85
2023-04-19T05:12:39.770Z,226.50
2023-04-19T05:13:39.763Z,221.68
2023-04-19T05:14:39.766Z,225.59
2023-04-19T05:15:39.788Z,231.60
2023-04-19T05:16:39.863Z,231.01
2023-04-19T05:17:39.839Z,231.51
2023-04-19T05:18:39.830Z,232.20
2023-04-19T05:19:39.809Z,231.43
2023-04-19T05:20:39.842Z,232.95
2023-04-19T05:21:39.834Z,233.20
2023-04-19T05:22:39.816Z,231.48
2023-04-19T05:23:39.819Z,232.39
2023-04-19T05:24:41.821Z,233.11
2023-04-19T05:25:39.835Z,232.77
2023-04-19T05:26:39.835Z,225.54
2023-04-19T05:27:39.831Z,226.39
2023-04-19T05:28:40.063Z,226.67
2023-04-19T05:29:39.863Z,230.12
2023-04-19T05:30:39.856Z,232.57
2023-04-19T05:31:39.892Z,233.29
2023-04-19T05:32:39.959Z,235.40
2023-04-19T05:33:39.868Z,238.96
2023-04-19T05:34:39.902Z,241.46
2023-04-19T05:35:39.901Z,244.51
2023-04-19T05:36:39.904Z,245.90
2023-04-19T05:37:39.931Z,246.27
2023-04-19T05:38:39.966Z,249.52
2023-04-19T05:39:41.149Z,249.81
2023-04-19T05:40:39.925Z,249.90
2023-04-19T05:41:39.927Z,250.00
2023-04-19T05:42:39.905Z,250.45
2023-04-19T05:43:39.907Z,249.48
2023-04-19T05:44:39.914Z,250.00
2023-04-19T05:45:39.888Z,249.88
2023-04-19T05:46:39.936Z,250.00
2023-04-19T05:47:39.990Z,249.12
2023-04-19T05:48:39.862Z,249.51
2023-04-19T05:49:41.407Z,250.12
2023-04-19T05:50:39.889Z,250.28
2023-04-19T05:51:39.858Z,250.89
2023-04-19T05:52:39.856Z,252.58
2023-04-19T05:53:39.842Z,256.48
2023-04-19T05:54:39.839Z,259.70
2023-04-19T05:55:39.841Z,250.49
2023-04-19T05:56:39.842Z,249.72
2023-04-19T05:57:39.837Z,250.00
2023-04-19T05:58:39.849Z,250.00
2023-04-19T05:59:39.806Z,249.57
2023-04-19T06:00:39.795Z,248.68
2023-04-19T06:01:39.831Z,248.71
2023-04-19T06:02:39.887Z,249.88
2023-04-19T06:03:40.029Z,249.36
2023-04-19T06:04:39.979Z,248.56
2023-04-19T06:05:39.819Z,247.19
2023-04-19T06:06:39.804Z,249.39
2023-04-19T06:07:43.304Z,248.61
2023-04-19T06:08:40.773Z,248.76
2023-04-19T06:09:39.752Z,248.83
2023-04-19T06:10:51.920Z,250.01
2023-04-19T06:11:50.089Z,248.90
2023-04-19T06:12:40.741Z,249.04
2023-04-19T06:13:39.705Z,250.29
2023-04-19T06:14:39.704Z,252.22
2023-04-19T06:15:39.731Z,254.32
2023-04-19T06:16:39.740Z,256.84
2023-04-19T06:17:39.720Z,253.33
2023-04-19T06:18:39.693Z,249.95
2023-04-19T06:19:39.690Z,256.97
2023-04-19T06:20:39.672Z,241.53
2023-04-19T06:21:39.668Z,236.30
2023-04-19T06:22:39.673Z,238.22
2023-04-19T06:23:39.640Z,237.00
2023-04-19T06:24:40.088Z,235.80
2023-04-19T06:25:39.649Z,231.84
2023-04-19T06:26:39.634Z,237.25
2023-04-19T06:27:39.615Z,239.22
2023-04-19T06:28:39.628Z,235.93
2023-04-19T06:29:39.633Z,235.56
2023-04-19T06:30:40.105Z,233.82
2023-04-19T06:31:39.669Z,227.01
2023-04-19T06:32:39.644Z,213.12
2023-04-19T06:33:39.592Z,191.64
2023-04-19T06:34:39.590Z,185.15
2023-04-19T06:35:39.593Z,192.00
2023-04-19T06:36:39.558Z,198.72
2023-04-19T06:37:39.557Z,202.06
2023-04-19T06:38:39.577Z,204.52
2023-04-19T06:39:39.541Z,214.56
2023-04-19T06:40:39.529Z,211.43
2023-04-19T06:41:39.554Z,224.93
2023-04-19T06:42:39.532Z,230.60
2023-04-19T06:43:39.513Z,221.46
2023-04-19T06:44:39.582Z,225.72
2023-04-19T06:45:39.621Z,225.62
2023-04-19T06:46:39.495Z,222.72
2023-04-19T06:47:39.537Z,225.13
2023-04-19T06:48:39.472Z,219.79
2023-04-19T06:49:39.468Z,226.14
2023-04-19T06:50:39.460Z,224.20
2023-04-19T06:51:39.462Z,221.41
2023-04-19T06:52:39.449Z,217.49
2023-04-19T06:53:39.446Z,221.19
2023-04-19T06:54:39.449Z,224.95
2023-04-19T06:55:39.590Z,226.55
2023-04-19T06:56:39.690Z,227.29
2023-04-19T06:57:39.432Z,226.66
2023-04-19T06:58:39.411Z,225.12
2023-04-19T06:59:39.603Z,228.53
2023-04-19T07:00:39.410Z,224.10
2023-04-19T07:01:39.449Z,222.53
2023-04-19T07:02:39.773Z,225.64
2023-04-19T07:03:39.502Z,228.56
2023-04-19T07:04:39.519Z,228.87
2023-04-19T07:05:39.615Z,228.63
2023-04-19T07:06:39.386Z,227.97
2023-04-19T07:07:39.356Z,225.70
2023-04-19T07:08:49.294Z,227.49
2023-04-19T07:09:40.364Z,227.53
2023-04-19T07:10:39.357Z,218.44
2023-04-19T07:11:39.348Z,223.44
2023-04-19T07:12:39.337Z,221.29
2023-04-19T07:13:39.316Z,224.52
2023-04-19T07:14:39.377Z,225.32
2023-04-19T07:15:39.629Z,225.38
2023-04-19T07:16:39.309Z,223.93
2023-04-19T07:17:39.324Z,224.24
2023-04-19T07:18:39.301Z,223.15
2023-04-19T07:19:39.279Z,221.73
2023-04-19T07:20:39.609Z,221.50
2023-04-19T07:21:39.447Z,221.17
2023-04-19T07:22:39.260Z,221.41
2023-04-19T07:23:39.284Z,224.55
2023-04-19T07:24:39.255Z,226.56
2023-04-19T07:25:39.595Z,232.64
2023-04-19T07:26:39.251Z,227.56
2023-04-19T07:27:39.268Z,224.11
2023-04-19T07:28:39.231Z,214.99
2023-04-19T07:29:39.598Z,205.75
2023-04-19T07:30:39.212Z,183.56
2023-04-19T07:31:39.266Z,149.52
2023-04-19T07:32:39.356Z,138.24
2023-04-19T07:33:39.199Z,128.31
2023-04-19T07:34:39.212Z,130.70
2023-04-19T07:35:39.239Z,128.92
2023-04-19T07:36:39.273Z,124.52
2023-04-19T07:37:39.323Z,129.41
2023-04-19T07:38:39.319Z,137.38
2023-04-19T07:39:39.353Z,146.82
2023-04-19T07:40:39.403Z,156.01
2023-04-19T07:41:39.410Z,162.96
2023-04-19T07:42:39.421Z,175.26
2023-04-19T07:43:41.091Z,178.21
2023-04-19T07:44:39.639Z,179.28
2023-04-19T07:45:39.520Z,178.42
2023-04-19T07:46:39.594Z,180.24
2023-04-19T07:47:39.550Z,181.22
2023-04-19T07:48:39.612Z,187.24
2023-04-19T07:49:39.647Z,186.74
2023-04-19T07:50:39.690Z,191.35
2023-04-19T07:51:39.700Z,187.70
2023-04-19T07:52:39.729Z,189.83
2023-04-19T07:53:39.715Z,192.03
2023-04-19T07:54:40.108Z,187.46
2023-04-19T07:55:40.118Z,191.86
2023-04-19T07:56:39.816Z,195.33
2023-04-19T07:57:39.906Z,200.63
2023-04-19T07:58:39.929Z,201.93
2023-04-19T07:59:39.982Z,197.87
2023-04-19T08:00:40.070Z,200.38
2023-04-19T08:01:40.283Z,206.01
2023-04-19T08:02:40.226Z,209.07
2023-04-19T08:03:40.340Z,207.45
2023-04-19T08:04:40.382Z,208.40
2023-04-19T08:05:40.688Z,210.03
2023-04-19T08:06:40.237Z,212.11
2023-04-19T08:07:40.229Z,213.75
2023-04-19T08:08:40.244Z,212.34
2023-04-19T08:09:40.280Z,210.82
2023-04-19T08:10:40.606Z,213.51
2023-04-19T08:11:40.271Z,215.28
2023-04-19T08:12:45.285Z,215.37
2023-04-19T08:13:42.134Z,215.49
2023-04-19T08:14:51.512Z,215.59
2023-04-19T08:17:10.923Z,215.74
2023-04-19T08:17:42.311Z,215.60
2023-04-19T08:18:40.417Z,216.33
2023-04-19T08:19:40.615Z,217.03
2023-04-19T08:20:40.414Z,217.35
2023-04-19T08:21:41.612Z,217.12
2023-04-19T08:22:40.431Z,216.83
2023-04-19T08:23:47.977Z,217.81
2023-04-19T08:24:41.635Z,217.83
2023-04-19T08:25:40.643Z,214.92
2023-04-19T08:26:40.367Z,219.24
2023-04-19T08:27:40.389Z,220.08
2023-04-19T08:28:40.355Z,221.01
2023-04-19T08:29:40.355Z,224.34
2023-04-19T08:30:40.344Z,223.24
2023-04-19T08:31:40.394Z,222.10
2023-04-19T08:32:40.387Z,225.51
2023-04-19T08:33:40.334Z,226.73
2023-04-19T08:34:40.686Z,227.33
2023-04-19T08:35:40.310Z,226.93
2023-04-19T08:36:45.923Z,207.42
2023-04-19T08:37:41.300Z,195.19
2023-04-19T08:38:41.749Z,201.70
2023-04-19T08:39:40.902Z,204.91
2023-04-19T08:40:40.284Z,205.13
2023-04-19T08:41:40.301Z,202.01
2023-04-19T08:42:40.280Z,204.34
2023-04-19T08:43:41.655Z,210.34
2023-04-19T08:44:53.786Z,213.03
2023-04-19T08:45:41.309Z,213.12
2023-04-19T08:46:40.250Z,213.59
2023-04-19T08:48:40.325Z,217.85
2023-04-19T08:49:42.748Z,222.91
2023-04-19T08:50:48.726Z,213.46
2023-04-19T08:51:41.221Z,213.50
2023-04-19T08:52:51.984Z,214.82
2023-04-19T08:53:41.205Z,213.42
2023-04-19T08:54:40.644Z,214.67
2023-04-19T08:55:47.303Z,218.24
2023-04-19T08:56:41.197Z,213.58
2023-04-19T08:57:40.188Z,215.05
2023-04-19T08:58:54.911Z,218.10
2023-04-19T08:59:41.239Z,213.61
2023-04-19T09:00:40.170Z,215.70
2023-04-19T09:01:41.075Z,219.39
2023-04-19T09:02:40.342Z,223.78
2023-04-19T09:03:55.456Z,231.80
2023-04-19T09:04:41.321Z,213.74
2023-04-19T09:05:40.298Z,215.98
2023-04-19T09:06:40.382Z,219.79
2023-04-19T09:07:40.114Z,225.04
2023-04-19T09:08:40.114Z,232.90
2023-04-19T09:09:48.834Z,234.63
2023-04-19T09:10:41.099Z,234.69
2023-04-19T09:11:40.103Z,235.04
2023-04-19T09:12:40.075Z,235.39
2023-04-19T09:13:40.081Z,236.41
2023-04-19T09:14:41.419Z,236.80
2023-04-19T09:15:40.151Z,237.15
2023-04-19T09:16:40.091Z,236.82
2023-04-19T09:17:40.079Z,235.71
2023-04-19T09:18:48.788Z,234.83
2023-04-19T09:19:41.051Z,234.96
2023-04-19T09:20:40.170Z,235.05
2023-04-19T09:21:40.035Z,233.98
2023-04-19T09:22:40.054Z,233.08
2023-04-19T09:23:40.009Z,231.87
2023-04-19T09:26:05.721Z,227.32
2023-04-19T09:26:41.284Z,227.47
2023-04-19T09:27:39.991Z,227.45
2023-04-19T09:28:39.990Z,227.35
2023-04-19T09:29:40.080Z,226.65
2023-04-19T09:30:46.965Z,225.75
2023-04-19T09:31:50.936Z,218.45
2023-04-19T09:32:41.065Z,213.76
2023-04-19T09:33:40.030Z,216.48
2023-04-19T09:34:39.928Z,217.05
2023-04-19T09:35:40.161Z,212.95
2023-04-19T09:36:39.923Z,214.11
2023-04-19T09:38:01.748Z,213.95
2023-04-19T09:38:40.922Z,213.98
2023-04-19T09:39:39.906Z,213.97
2023-04-19T09:40:40.152Z,213.13
2023-04-19T09:41:41.436Z,213.29
2023-04-19T09:42:55.462Z,213.08
2023-04-19T09:45:40.092Z,213.99
2023-04-19T09:46:40.132Z,212.90
2023-04-19T09:47:40.138Z,213.04
2023-04-19T09:48:40.068Z,211.86
2023-04-19T09:49:48.400Z,212.97
2023-04-19T09:50:53.649Z,213.98
2023-04-19T09:51:41.087Z,214.02
2023-04-19T09:52:40.036Z,214.05
2023-04-19T09:53:40.050Z,211.99
2023-04-19T09:54:40.044Z,212.49
2023-04-19T09:55:52.385Z,211.97
2023-04-19T09:56:41.170Z,214.00
2023-04-19T09:57:40.020Z,213.87
2023-04-19T09:58:49.953Z,212.52
2023-04-19T09:59:40.988Z,213.99
2023-04-19T10:00:47.914Z,214.11
2023-04-19T10:01:41.021Z,214.04
2023-04-19T10:02:40.029Z,214.19
2023-04-19T10:03:40.130Z,214.07
2023-04-19T10:05:40.202Z,202.40
2023-04-19T10:06:52.164Z,200.62
2023-04-19T10:07:40.983Z,207.84
2023-04-19T10:08:39.938Z,208.75
2023-04-19T10:09:49.628Z,206.61
2023-04-19T10:10:42.328Z,209.86
2023-04-19T10:11:40.159Z,209.13
2023-04-19T10:13:40.912Z,208.22
2023-04-19T10:14:40.002Z,204.99
2023-04-19T10:15:50.582Z,202.65
2023-04-19T10:16:41.202Z,205.82
2023-04-19T10:17:39.912Z,202.83
2023-04-19T10:18:39.869Z,188.06
2023-04-19T10:19:39.887Z,192.87
2023-04-19T10:20:39.866Z,172.46
2023-04-19T10:21:40.174Z,162.64
2023-04-19T10:22:39.847Z,166.87
2023-04-19T10:23:39.835Z,172.40
2023-04-19T10:24:39.833Z,144.96
2023-04-19T10:25:40.196Z,152.78
2023-04-19T10:26:39.862Z,153.84
2023-04-19T10:27:39.838Z,139.16
2023-04-19T10:28:39.812Z,160.75
2023-04-19T10:29:39.823Z,175.53
2023-04-19T10:30:39.811Z,175.15
2023-04-19T10:31:39.815Z,183.39
2023-04-19T10:32:39.815Z,164.19
2023-04-19T10:33:39.803Z,186.16
2023-04-19T10:34:39.809Z,239.47
2023-04-19T10:35:39.767Z,163.84
2023-04-19T10:36:40.182Z,132.36
2023-04-19T10:37:39.818Z,126.16
2023-04-19T10:38:39.828Z,121.96
2023-04-19T10:39:39.836Z,130.64
2023-04-19T10:40:39.959Z,138.54
2023-04-19T10:41:39.898Z,131.04
2023-04-19T10:42:39.902Z,147.61
2023-04-19T10:43:39.922Z,149.50
2023-04-19T10:44:39.971Z,148.89
2023-04-19T10:45:40.221Z,153.07
2023-04-19T10:46:40.100Z,148.24
2023-04-19T10:47:40.037Z,133.89
2023-04-19T10:48:40.013Z,135.71
2023-04-19T10:49:39.993Z,135.40
2023-04-19T10:50:40.086Z,143.19
2023-04-19T10:51:40.050Z,137.75
2023-04-19T10:52:40.060Z,128.08
2023-04-19T10:53:40.056Z,119.28
2023-04-19T10:54:40.077Z,117.09
2023-04-19T10:55:40.111Z,117.49
2023-04-19T10:56:40.121Z,116.87
2023-04-19T10:57:40.153Z,119.18
2023-04-19T10:58:40.177Z,125.61
2023-04-19T10:59:40.186Z,119.23
2023-04-19T11:00:40.218Z,138.90
2023-04-19T11:01:40.680Z,148.72
2023-04-19T11:02:40.353Z,154.00
2023-04-19T11:03:40.419Z,145.80
2023-04-19T11:04:40.444Z,153.58
2023-04-19T11:05:40.290Z,140.76
2023-04-19T11:06:40.284Z,139.05
2023-04-19T11:07:40.302Z,125.35
2023-04-19T11:08:40.308Z,124.92
2023-04-19T11:09:40.330Z,121.35
2023-04-19T11:10:40.459Z,119.92
2023-04-19T11:11:40.691Z,113.21
2023-04-19T11:12:40.419Z,91.01
2023-04-19T11:13:40.465Z,68.70
2023-04-19T11:14:40.529Z,65.36
2023-04-19T11:15:40.579Z,61.11
2023-04-19T11:16:46.199Z,49.94
2023-04-19T11:17:41.561Z,38.87
2023-04-19T11:18:40.538Z,29.38
2023-04-19T11:19:40.525Z,32.12
2023-04-19T11:20:40.583Z,28.60
2023-04-19T11:21:40.532Z,14.60
2023-04-19T11:22:40.520Z,18.61
2023-04-19T11:23:40.513Z,25.65
2023-04-19T11:24:40.496Z,27.44
2023-04-19T11:25:40.485Z,25.64
2023-04-19T11:26:40.482Z,28.60
2023-04-19T11:27:40.502Z,29.19
2023-04-19T11:28:40.467Z,26.10
2023-04-19T11:29:40.477Z,24.74
2023-04-19T11:30:40.479Z,26.33
2023-04-19T11:31:40.580Z,31.17
2023-04-19T11:32:40.612Z,26.83
2023-04-19T11:33:40.645Z,26.46
2023-04-19T11:34:40.648Z,34.16
2023-04-19T11:35:40.682Z,28.39
2023-04-19T11:36:40.762Z,24.55
2023-04-19T11:37:40.802Z,26.99
2023-04-19T11:38:40.879Z,28.40
2023-04-19T11:39:40.907Z,26.25
2023-04-19T11:40:40.970Z,30.28
2023-04-19T11:41:41.033Z,35.34
2023-04-19T11:42:41.099Z,36.79
2023-04-19T11:43:41.167Z,37.48
2023-04-19T11:44:41.189Z,42.09
2023-04-19T11:45:41.172Z,53.28
2023-04-19T11:46:41.265Z,57.41
2023-04-19T11:47:41.344Z,60.45
2023-04-19T11:48:41.333Z,67.49
2023-04-19T11:49:41.393Z,77.20
2023-04-19T11:50:41.526Z,81.10
2023-04-19T11:51:41.482Z,85.42
2023-04-19T11:52:41.461Z,91.67
2023-04-19T11:53:41.486Z,101.75
2023-04-19T11:54:41.520Z,104.19
2023-04-19T11:55:41.493Z,104.37
2023-04-19T11:56:41.521Z,106.05
2023-04-19T11:57:41.766Z,108.81
2023-04-19T11:58:41.663Z,114.74
2023-04-19T11:59:41.703Z,119.10
2023-04-19T12:00:41.755Z,122.80
2023-04-19T12:01:41.796Z,130.63
2023-04-19T12:02:41.927Z,141.08
2023-04-19T12:03:42.045Z,147.50
2023-04-19T12:04:42.119Z,151.37
2023-04-19T12:05:42.068Z,154.82
2023-04-19T12:06:42.217Z,159.10
2023-04-19T12:07:41.899Z,166.60
2023-04-19T12:08:41.924Z,174.46
2023-04-19T12:09:41.921Z,175.70
2023-04-19T12:10:41.908Z,177.93
2023-04-19T12:11:41.981Z,176.41
2023-04-19T12:12:41.909Z,174.08
2023-04-19T12:13:41.900Z,172.08
2023-04-19T12:14:41.934Z,169.95
2023-04-19T12:15:41.960Z,169.69
2023-04-19T12:16:41.976Z,170.28
2023-04-19T12:17:54.590Z,169.35
2023-04-19T12:18:42.945Z,169.45
2023-04-19T12:19:41.934Z,169.48
2023-04-19T12:20:41.941Z,168.41
2023-04-19T12:21:41.945Z,169.40
2023-04-19T12:22:41.917Z,168.87
2023-04-19T12:23:41.923Z,167.77
2023-04-19T12:24:41.895Z,166.05
2023-04-19T12:25:41.906Z,168.50
2023-04-19T12:26:41.968Z,168.17
2023-04-19T12:27:42.010Z,166.44
2023-04-19T12:28:42.090Z,166.68
2023-04-19T12:29:42.116Z,167.16
2023-04-19T12:30:42.166Z,167.43
2023-04-19T12:31:42.289Z,167.17
2023-04-19T12:32:42.305Z,167.44
2023-04-19T12:33:42.318Z,168.76
2023-04-19T12:34:42.384Z,167.39
2023-04-19T12:35:42.426Z,167.72
2023-04-19T12:36:42.495Z,167.73